createdAt,value
2023-03-17T00:00:45.811Z,1005.74
2023-03-17T00:01:24.810Z,1005.78
2023-03-17T00:02:24.839Z,1005.80
2023-03-17T00:03:24.818Z,1005.83
2023-03-17T00:04:24.772Z,1005.92
2023-03-17T00:05:24.782Z,1005.94
2023-03-17T00:06:24.737Z,1005.90
2023-03-17T00:07:24.763Z,1005.93
2023-03-17T00:08:24.711Z,1005.92
2023-03-17T00:09:24.703Z,1005.97
2023-03-17T00:10:24.693Z,1005.97
2023-03-17T00:11:24.689Z,1006.03
2023-03-17T00:12:24.689Z,1006.00
2023-03-17T00:13:25.740Z,1006.07
2023-03-17T00:14:24.655Z,1006.07
2023-03-17T00:15:24.640Z,1006.08
2023-03-17T00:16:24.658Z,1006.08
2023-03-17T00:17:24.657Z,1006.01
2023-03-17T00:18:24.597Z,1005.98
2023-03-17T00:19:24.635Z,1005.92
2023-03-17T00:20:24.584Z,1005.89
2023-03-17T00:21:24.571Z,1005.89
2023-03-17T00:22:24.556Z,1005.92
2023-03-17T00:23:24.573Z,1005.89
2023-03-17T00:24:24.527Z,1005.87
2023-03-17T00:25:24.575Z,1005.83
2023-03-17T00:26:24.556Z,1005.89
2023-03-17T00:27:24.501Z,1005.82
2023-03-17T00:28:24.488Z,1005.90
2023-03-17T00:29:24.488Z,1005.96
2023-03-17T00:30:24.480Z,1005.94
2023-03-17T00:31:24.551Z,1005.93
2023-03-17T00:32:24.466Z,1005.97
2023-03-17T00:33:24.441Z,1005.92
2023-03-17T00:34:24.436Z,1005.93
2023-03-17T00:35:24.469Z,1005.93
2023-03-17T00:36:24.399Z,1005.95
2023-03-17T00:37:24.432Z,1005.93
2023-03-17T00:38:24.382Z,1006.01
2023-03-17T00:39:24.369Z,1005.97
2023-03-17T00:40:24.358Z,1005.92
2023-03-17T00:41:24.350Z,1005.91
2023-03-17T00:42:24.364Z,1005.81
2023-03-17T00:43:24.331Z,1005.84
2023-03-17T00:44:24.353Z,1005.83
2023-03-17T00:45:24.299Z,1005.83
2023-03-17T00:46:24.398Z,1005.80
2023-03-17T00:47:24.309Z,1005.79
2023-03-17T00:48:24.257Z,1005.72
2023-03-17T00:49:24.284Z,1005.74
2023-03-17T00:50:24.238Z,1005.76
2023-03-17T00:51:24.243Z,1005.71
2023-03-17T00:52:24.219Z,1005.66
2023-03-17T00:53:24.241Z,1005.62
2023-03-17T00:54:25.753Z,1005.58
2023-03-17T00:55:24.207Z,1005.67
2023-03-17T00:56:24.175Z,1005.58
2023-03-17T00:57:24.165Z,1005.56
2023-03-17T00:58:24.215Z,1005.53
2023-03-17T00:59:24.142Z,1005.59
2023-03-17T01:00:24.150Z,1005.53
2023-03-17T01:01:24.172Z,1005.56
2023-03-17T01:02:24.137Z,1005.56
2023-03-17T01:03:24.098Z,1005.43
2023-03-17T01:04:24.181Z,1005.50
2023-03-17T01:05:24.083Z,1005.48
2023-03-17T01:06:24.061Z,1005.46
2023-03-17T01:07:24.074Z,1005.46
2023-03-17T01:08:24.032Z,1005.40
2023-03-17T01:09:24.039Z,1005.34
2023-03-17T01:10:24.049Z,1005.38
2023-03-17T01:11:24.012Z,1005.42
2023-03-17T01:12:23.981Z,1005.42
2023-03-17T01:13:24.028Z,1005.34
2023-03-17T01:14:23.969Z,1005.29
2023-03-17T01:15:23.980Z,1005.32
2023-03-17T01:16:24.001Z,1005.25
2023-03-17T01:17:24.279Z,1005.28
2023-03-17T01:18:24.010Z,1005.33
2023-03-17T01:19:23.959Z,1005.24
2023-03-17T01:20:23.893Z,1005.21
2023-03-17T01:21:23.897Z,1005.26
2023-03-17T01:22:23.881Z,1005.18
2023-03-17T01:23:23.878Z,1005.21
2023-03-17T01:24:23.855Z,1005.12
2023-03-17T01:25:24.750Z,1005.11
2023-03-17T01:26:25.977Z,1005.13
2023-03-17T01:27:23.825Z,1005.19
2023-03-17T01:28:23.839Z,1005.11
2023-03-17T01:29:23.800Z,1005.08
2023-03-17T01:30:23.789Z,1005.00
2023-03-17T01:31:23.788Z,1005.03
2023-03-17T01:32:23.758Z,1005.02
2023-03-17T01:33:23.757Z,1004.97
2023-03-17T01:34:23.777Z,1004.94
2023-03-17T01:35:23.733Z,1004.91
2023-03-17T01:36:23.712Z,1004.82
2023-03-17T01:37:23.759Z,1004.89
2023-03-17T01:38:23.706Z,1004.77
2023-03-17T01:39:23.731Z,1004.66
2023-03-17T01:40:23.679Z,1004.66
2023-03-17T01:41:23.706Z,1004.61
2023-03-17T01:42:23.670Z,1004.59
2023-03-17T01:43:23.658Z,1004.55
2023-03-17T01:44:23.683Z,1004.52
2023-03-17T01:45:23.746Z,1004.62
2023-03-17T01:46:23.602Z,1004.58
2023-03-17T01:47:23.606Z,1004.51
2023-03-17T01:48:23.592Z,1004.61
2023-03-17T01:49:23.577Z,1004.63
2023-03-17T01:50:23.581Z,1004.68
2023-03-17T01:51:23.561Z,1004.67
2023-03-17T01:52:23.590Z,1004.70
2023-03-17T01:53:23.574Z,1004.68
2023-03-17T01:54:23.538Z,1004.73
2023-03-17T01:55:23.519Z,1004.74
2023-03-17T01:56:23.509Z,1004.75
2023-03-17T01:57:23.517Z,1004.71
2023-03-17T01:58:23.498Z,1004.73
2023-03-17T01:59:23.460Z,1004.73
2023-03-17T02:00:23.449Z,1004.75
2023-03-17T02:01:24.956Z,1004.70
2023-03-17T02:02:23.462Z,1004.73
2023-03-17T02:03:23.415Z,1004.63
2023-03-17T02:04:23.500Z,1004.70
2023-03-17T02:05:23.399Z,1004.80
2023-03-17T02:06:24.893Z,1004.71
2023-03-17T02:07:23.385Z,1004.78
2023-03-17T02:08:23.385Z,1004.76
2023-03-17T02:09:23.349Z,1004.80
2023-03-17T02:10:23.336Z,1004.75
2023-03-17T02:11:23.349Z,1004.76
2023-03-17T02:12:23.303Z,1004.79
2023-03-17T02:13:23.330Z,1004.75
2023-03-17T02:14:23.281Z,1004.80
2023-03-17T02:15:23.279Z,1004.74
2023-03-17T02:16:23.332Z,1004.74
2023-03-17T02:17:23.255Z,1004.64
2023-03-17T02:18:23.296Z,1004.64
2023-03-17T02:19:23.240Z,1004.62
2023-03-17T02:20:23.226Z,1004.65
2023-03-17T02:21:23.212Z,1004.65
2023-03-17T02:22:23.199Z,1004.73
2023-03-17T02:23:23.194Z,1004.74
2023-03-17T02:24:23.200Z,1004.75
2023-03-17T02:25:23.162Z,1004.69
2023-03-17T02:26:23.154Z,1004.76
2023-03-17T02:27:23.164Z,1004.71
2023-03-17T02:28:23.133Z,1004.71
2023-03-17T02:29:23.154Z,1004.69
2023-03-17T02:30:23.120Z,1004.66
2023-03-17T02:31:23.163Z,1004.63
2023-03-17T02:32:23.101Z,1004.64
2023-03-17T02:33:24.542Z,1004.67
2023-03-17T02:34:24.017Z,1004.60
2023-03-17T02:35:23.088Z,1004.60
2023-03-17T02:36:23.515Z,1004.60
2023-03-17T02:37:23.046Z,1004.57
2023-03-17T02:38:23.041Z,1004.62
2023-03-17T02:39:23.057Z,1004.63
2023-03-17T02:40:23.069Z,1004.64
2023-03-17T02:41:22.999Z,1004.69
2023-03-17T02:42:23.420Z,1004.64
2023-03-17T02:43:24.422Z,1004.64
2023-03-17T02:44:23.799Z,1004.68
2023-03-17T02:45:23.299Z,1004.70
2023-03-17T02:46:23.119Z,1004.72
2023-03-17T02:47:24.439Z,1004.73
2023-03-17T02:48:22.932Z,1004.74
2023-03-17T02:49:23.070Z,1004.74
2023-03-17T02:50:23.694Z,1004.75
2023-03-17T02:51:22.898Z,1004.63
2023-03-17T02:52:22.883Z,1004.67
2023-03-17T02:53:22.851Z,1004.68
2023-03-17T02:54:23.658Z,1004.67
2023-03-17T02:55:23.079Z,1004.72
2023-03-17T02:56:23.046Z,1004.74
2023-03-17T02:57:22.813Z,1004.74
2023-03-17T02:58:22.983Z,1004.73
2023-03-17T02:59:22.813Z,1004.64
2023-03-17T03:00:22.787Z,1004.71
2023-03-17T03:01:23.207Z,1004.64
2023-03-17T03:02:22.787Z,1004.60
2023-03-17T03:03:23.435Z,1004.54
2023-03-17T03:04:22.778Z,1004.51
2023-03-17T03:05:22.741Z,1004.49
2023-03-17T03:06:22.705Z,1004.51
2023-03-17T03:07:22.722Z,1004.56
2023-03-17T03:08:22.693Z,1004.63
2023-03-17T03:09:22.732Z,1004.61
2023-03-17T03:10:22.681Z,1004.58
2023-03-17T03:11:22.661Z,1004.61
2023-03-17T03:12:22.724Z,1004.60
2023-03-17T03:13:22.667Z,1004.64
2023-03-17T03:14:22.661Z,1004.65
2023-03-17T03:15:22.612Z,1004.60
2023-03-17T03:16:22.629Z,1004.57
2023-03-17T03:17:22.588Z,1004.56
2023-03-17T03:18:22.737Z,1004.60
2023-03-17T03:19:24.014Z,1004.59
2023-03-17T03:20:22.576Z,1004.59
2023-03-17T03:21:22.551Z,1004.58
2023-03-17T03:22:22.577Z,1004.48
2023-03-17T03:23:24.067Z,1004.43
2023-03-17T03:24:22.501Z,1004.52
2023-03-17T03:25:22.511Z,1004.55
2023-03-17T03:26:22.685Z,1004.49
2023-03-17T03:27:22.473Z,1004.53
2023-03-17T03:28:22.478Z,1004.62
2023-03-17T03:29:22.457Z,1004.56
2023-03-17T03:30:22.462Z,1004.48
2023-03-17T03:31:22.504Z,1004.52
2023-03-17T03:32:22.451Z,1004.49
2023-03-17T03:33:22.459Z,1004.57
2023-03-17T03:34:22.474Z,1004.50
2023-03-17T03:35:22.373Z,1004.57
2023-03-17T03:36:22.443Z,1004.47
2023-03-17T03:37:22.402Z,1004.49
2023-03-17T03:38:22.398Z,1004.50
2023-03-17T03:39:22.366Z,1004.53
2023-03-17T03:40:22.349Z,1004.51
2023-03-17T03:41:22.373Z,1004.39
2023-03-17T03:42:22.478Z,1004.48
2023-03-17T03:43:23.944Z,1004.47
2023-03-17T03:44:22.289Z,1004.45
2023-03-17T03:45:22.275Z,1004.44
2023-03-17T03:46:22.301Z,1004.40
2023-03-17T03:47:23.084Z,1004.47
2023-03-17T03:48:22.244Z,1004.43
2023-03-17T03:49:22.223Z,1004.43
2023-03-17T03:50:22.240Z,1004.38
2023-03-17T03:51:22.200Z,1004.37
2023-03-17T03:52:22.209Z,1004.41
2023-03-17T03:53:22.213Z,1004.41
2023-03-17T03:54:22.167Z,1004.48
2023-03-17T03:55:22.226Z,1004.55
2023-03-17T03:56:22.164Z,1004.52
2023-03-17T03:57:22.189Z,1004.57
2023-03-17T03:58:23.096Z,1004.59
2023-03-17T03:59:23.691Z,1004.60
2023-03-17T04:00:22.175Z,1004.62
2023-03-17T04:01:22.078Z,1004.66
2023-03-17T04:02:22.150Z,1004.70
2023-03-17T04:03:22.066Z,1004.60
2023-03-17T04:04:22.410Z,1004.60
2023-03-17T04:05:22.066Z,1004.63
2023-03-17T04:06:22.032Z,1004.63
2023-03-17T04:07:22.161Z,1004.64
2023-03-17T04:08:22.015Z,1004.70
2023-03-17T04:09:21.994Z,1004.67
2023-03-17T04:10:22.174Z,1004.62
2023-03-17T04:11:21.989Z,1004.63
2023-03-17T04:12:21.971Z,1004.67
2023-03-17T04:13:21.962Z,1004.67
2023-03-17T04:14:21.945Z,1004.71
2023-03-17T04:15:21.935Z,1004.70
2023-03-17T04:16:22.047Z,1004.69
2023-03-17T04:17:22.113Z,1004.69
2023-03-17T04:18:23.349Z,1004.59
2023-03-17T04:19:21.948Z,1004.63
2023-03-17T04:20:23.412Z,1004.65
2023-03-17T04:21:21.888Z,1004.71
2023-03-17T04:22:21.850Z,1004.60
2023-03-17T04:23:22.475Z,1004.71
2023-03-17T04:24:21.846Z,1004.60
2023-03-17T04:25:22.301Z,1004.66
2023-03-17T04:26:21.848Z,1004.63
2023-03-17T04:27:21.820Z,1004.66
2023-03-17T04:28:22.205Z,1004.60
2023-03-17T04:29:21.769Z,1004.59
2023-03-17T04:30:21.768Z,1004.55
2023-03-17T04:31:21.766Z,1004.58
2023-03-17T04:32:21.769Z,1004.49
2023-03-17T04:33:21.741Z,1004.44
2023-03-17T04:34:21.736Z,1004.44
2023-03-17T04:35:21.734Z,1004.46
2023-03-17T04:36:22.734Z,1004.56
2023-03-17T04:37:21.706Z,1004.51
2023-03-17T04:38:21.672Z,1004.54
2023-03-17T04:39:21.673Z,1004.51
2023-03-17T04:40:21.678Z,1004.57
2023-03-17T04:41:21.647Z,1004.54
2023-03-17T04:42:21.663Z,1004.53
2023-03-17T04:43:21.648Z,1004.59
2023-03-17T04:44:21.634Z,1004.56
2023-03-17T04:45:21.613Z,1004.61
2023-03-17T04:46:21.595Z,1004.58
2023-03-17T04:47:21.602Z,1004.69
2023-03-17T04:48:21.575Z,1004.66
2023-03-17T04:49:21.549Z,1004.64
2023-03-17T04:50:21.603Z,1004.59
2023-03-17T04:51:21.535Z,1004.64
2023-03-17T04:52:21.535Z,1004.68
2023-03-17T04:53:21.565Z,1004.66
2023-03-17T04:54:21.510Z,1004.69
2023-03-17T04:55:21.502Z,1004.64
2023-03-17T04:56:23.101Z,1004.56
2023-03-17T04:57:21.512Z,1004.53
2023-03-17T04:58:30.515Z,1004.58
2023-03-17T04:59:22.447Z,1004.46
2023-03-17T05:00:21.444Z,1004.48
2023-03-17T05:01:21.515Z,1004.48
2023-03-17T05:02:21.460Z,1004.46
2023-03-17T05:03:27.315Z,1004.51
2023-03-17T05:04:31.080Z,1004.57
2023-03-17T05:05:22.404Z,1004.56
2023-03-17T05:06:21.375Z,1004.55
2023-03-17T05:07:21.361Z,1004.54
2023-03-17T05:08:21.375Z,1004.54
2023-03-17T05:09:21.330Z,1004.52
2023-03-17T05:10:21.339Z,1004.47
2023-03-17T05:11:22.262Z,1004.59
2023-03-17T05:12:21.310Z,1004.59
2023-03-17T05:13:21.301Z,1004.68
2023-03-17T05:14:21.288Z,1004.65
2023-03-17T05:15:21.380Z,1004.66
2023-03-17T05:16:21.281Z,1004.70
2023-03-17T05:17:21.273Z,1004.65
2023-03-17T05:18:21.241Z,1004.64
2023-03-17T05:19:21.236Z,1004.69
2023-03-17T05:20:21.853Z,1004.73
2023-03-17T05:21:21.245Z,1004.73
2023-03-17T05:22:21.202Z,1004.69
2023-03-17T05:23:21.181Z,1004.68
2023-03-17T05:24:22.671Z,1004.65
2023-03-17T05:25:26.381Z,1004.62
2023-03-17T05:26:21.167Z,1004.62
2023-03-17T05:27:21.160Z,1004.66
2023-03-17T05:28:22.595Z,1004.68
2023-03-17T05:29:21.118Z,1004.70
2023-03-17T05:30:21.127Z,1004.72
2023-03-17T05:31:21.516Z,1004.75
2023-03-17T05:32:21.151Z,1004.73
2023-03-17T05:33:21.094Z,1004.69
2023-03-17T05:34:21.054Z,1004.74
2023-03-17T05:35:21.099Z,1004.74
2023-03-17T05:36:21.827Z,1004.77
2023-03-17T05:37:22.077Z,1004.78
2023-03-17T05:38:21.010Z,1004.75
2023-03-17T05:39:21.977Z,1004.77
2023-03-17T05:40:22.570Z,1004.78
2023-03-17T05:41:20.991Z,1004.76
2023-03-17T05:42:22.579Z,1004.73
2023-03-17T05:43:21.055Z,1004.73
2023-03-17T05:44:20.980Z,1004.74
2023-03-17T05:45:20.973Z,1004.73
2023-03-17T05:46:21.080Z,1004.66
2023-03-17T05:47:20.988Z,1004.63
2023-03-17T05:48:20.939Z,1004.56
2023-03-17T05:49:21.107Z,1004.58
2023-03-17T05:50:20.970Z,1004.67
2023-03-17T05:51:21.085Z,1004.61
2023-03-17T05:52:20.895Z,1004.62
2023-03-17T05:53:20.881Z,1004.67
2023-03-17T05:54:20.989Z,1004.61
2023-03-17T05:55:20.887Z,1004.57
2023-03-17T05:56:20.845Z,1004.60
2023-03-17T05:57:21.184Z,1004.51
2023-03-17T05:58:20.796Z,1004.51
2023-03-17T05:59:20.824Z,1004.55
2023-03-17T06:00:20.842Z,1004.49
2023-03-17T06:01:20.785Z,1004.48
2023-03-17T06:02:20.904Z,1004.45
2023-03-17T06:03:20.768Z,1004.47
2023-03-17T06:04:20.757Z,1004.49
2023-03-17T06:05:20.927Z,1004.47
2023-03-17T06:06:20.823Z,1004.51
2023-03-17T06:07:20.736Z,1004.56
2023-03-17T06:08:20.688Z,1004.49
2023-03-17T06:09:20.891Z,1004.53
2023-03-17T06:10:20.703Z,1004.47
2023-03-17T06:11:20.748Z,1004.47
2023-03-17T06:12:20.637Z,1004.49
2023-03-17T06:13:20.755Z,1004.51
2023-03-17T06:14:20.650Z,1004.55
2023-03-17T06:15:20.595Z,1004.45
2023-03-17T06:16:20.687Z,1004.51
2023-03-17T06:17:20.800Z,1004.48
2023-03-17T06:18:20.575Z,1004.48
2023-03-17T06:19:20.572Z,1004.53
2023-03-17T06:20:20.773Z,1004.51
2023-03-17T06:21:20.622Z,1004.47
2023-03-17T06:22:20.555Z,1004.47
2023-03-17T06:23:20.552Z,1004.45
2023-03-17T06:24:20.495Z,1004.54
2023-03-17T06:25:20.484Z,1004.48
2023-03-17T06:26:20.485Z,1004.44
2023-03-17T06:27:20.473Z,1004.43
2023-03-17T06:28:20.510Z,1004.42
2023-03-17T06:29:20.461Z,1004.43
2023-03-17T06:30:20.421Z,1004.47
2023-03-17T06:31:20.488Z,1004.46
2023-03-17T06:32:21.198Z,1004.51
2023-03-17T06:33:20.431Z,1004.47
2023-03-17T06:34:20.372Z,1004.50
2023-03-17T06:35:20.444Z,1004.45
2023-03-17T06:36:20.350Z,1004.44
2023-03-17T06:37:20.382Z,1004.45
2023-03-17T06:38:20.347Z,1004.48
2023-03-17T06:39:20.322Z,1004.48
2023-03-17T06:40:20.347Z,1004.49
2023-03-17T06:41:20.347Z,1004.52
2023-03-17T06:42:20.284Z,1004.55
2023-03-17T06:43:20.279Z,1004.51
2023-03-17T06:44:20.272Z,1004.53
2023-03-17T06:45:20.256Z,1004.56
2023-03-17T06:46:20.293Z,1004.44
2023-03-17T06:47:21.060Z,1004.42
2023-03-17T06:48:20.215Z,1004.33
2023-03-17T06:49:20.209Z,1004.48
2023-03-17T06:50:20.283Z,1004.52
2023-03-17T06:51:20.794Z,1004.50
2023-03-17T06:52:20.949Z,1004.47
2023-03-17T06:53:20.187Z,1004.56
2023-03-17T06:54:20.832Z,1004.51
2023-03-17T06:55:20.146Z,1004.52
2023-03-17T06:56:29.452Z,1004.51
2023-03-17T06:57:21.131Z,1004.52
2023-03-17T06:58:20.136Z,1004.56
2023-03-17T06:59:20.098Z,1004.55
2023-03-17T07:00:20.106Z,1004.56
2023-03-17T07:01:20.141Z,1004.58
2023-03-17T07:02:20.060Z,1004.62
2023-03-17T07:03:20.077Z,1004.65
2023-03-17T07:04:20.062Z,1004.65
2023-03-17T07:05:20.035Z,1004.63
2023-03-17T07:06:20.024Z,1004.53
2023-03-17T07:07:20.064Z,1004.51
2023-03-17T07:08:20.000Z,1004.55
2023-03-17T07:09:20.151Z,1004.58
2023-03-17T07:10:19.973Z,1004.55
2023-03-17T07:11:19.989Z,1004.59
2023-03-17T07:12:20.030Z,1004.57
2023-03-17T07:13:20.018Z,1004.59
2023-03-17T07:14:20.153Z,1004.58
2023-03-17T07:15:19.938Z,1004.61
2023-03-17T07:16:19.962Z,1004.62
2023-03-17T07:17:19.982Z,1004.64
2023-03-17T07:18:19.913Z,1004.59
2023-03-17T07:19:19.885Z,1004.65
2023-03-17T07:20:19.865Z,1004.55
2023-03-17T07:21:19.876Z,1004.63
2023-03-17T07:22:19.841Z,1004.66
2023-03-17T07:23:19.891Z,1004.70
2023-03-17T07:24:19.815Z,1004.71
2023-03-17T07:25:19.812Z,1004.70
2023-03-17T07:26:19.803Z,1004.69
2023-03-17T07:27:22.666Z,1004.67
2023-03-17T07:28:19.766Z,1004.68
2023-03-17T07:29:19.790Z,1004.74
2023-03-17T07:30:20.574Z,1004.72
2023-03-17T07:31:19.823Z,1004.68
2023-03-17T07:32:19.746Z,1004.70
2023-03-17T07:33:19.735Z,1004.69
2023-03-17T07:34:19.749Z,1004.64
2023-03-17T07:35:19.789Z,1004.64
2023-03-17T07:36:19.690Z,1004.66
2023-03-17T07:37:19.688Z,1004.59
2023-03-17T07:38:19.694Z,1004.62
2023-03-17T07:39:19.705Z,1004.64
2023-03-17T07:40:19.658Z,1004.62
2023-03-17T07:41:19.657Z,1004.57
2023-03-17T07:42:19.630Z,1004.62
2023-03-17T07:43:19.625Z,1004.56
2023-03-17T07:44:19.606Z,1004.60
2023-03-17T07:45:19.594Z,1004.53
2023-03-17T07:46:19.658Z,1004.53
2023-03-17T07:47:19.560Z,1004.55
2023-03-17T07:48:19.627Z,1004.57
2023-03-17T07:49:34.099Z,1004.60
2023-03-17T07:50:20.601Z,1004.53
2023-03-17T07:51:19.585Z,1004.59
2023-03-17T07:52:19.510Z,1004.51
2023-03-17T07:53:19.477Z,1004.48
2023-03-17T07:54:19.498Z,1004.46
2023-03-17T07:55:19.463Z,1004.55
2023-03-17T07:56:19.592Z,1004.52
2023-03-17T07:57:20.303Z,1004.48
2023-03-17T07:58:19.438Z,1004.47
2023-03-17T07:59:19.428Z,1004.44
2023-03-17T08:00:19.416Z,1004.47
2023-03-17T08:01:19.444Z,1004.42
2023-03-17T08:02:19.564Z,1004.39
2023-03-17T08:03:19.578Z,1004.46
2023-03-17T08:04:19.370Z,1004.40
2023-03-17T08:05:19.402Z,1004.45
2023-03-17T08:06:19.419Z,1004.43
2023-03-17T08:07:19.456Z,1004.44
2023-03-17T08:08:19.363Z,1004.44
2023-03-17T08:09:19.329Z,1004.50
2023-03-17T08:10:19.365Z,1004.47
2023-03-17T08:11:20.349Z,1004.49
2023-03-17T08:12:19.270Z,1004.40
2023-03-17T08:13:19.261Z,1004.45
2023-03-17T08:14:19.252Z,1004.47
2023-03-17T08:15:20.233Z,1004.50
2023-03-17T08:16:19.382Z,1004.52
2023-03-17T08:17:19.345Z,1004.48
2023-03-17T08:18:19.293Z,1004.51
2023-03-17T08:19:19.213Z,1004.45
2023-03-17T08:20:19.202Z,1004.47
2023-03-17T08:21:19.185Z,1004.49
2023-03-17T08:22:19.246Z,1004.58
2023-03-17T08:23:19.184Z,1004.51
2023-03-17T08:24:19.232Z,1004.53
2023-03-17T08:25:19.229Z,1004.53
2023-03-17T08:26:19.149Z,1004.59
2023-03-17T08:27:19.175Z,1004.57
2023-03-17T08:28:19.141Z,1004.66
2023-03-17T08:29:19.934Z,1004.74
2023-03-17T08:30:19.076Z,1004.73
2023-03-17T08:31:19.108Z,1004.66
2023-03-17T08:32:19.053Z,1004.59
2023-03-17T08:33:19.329Z,1004.61
2023-03-17T08:34:19.112Z,1004.59
2023-03-17T08:35:19.111Z,1004.62
2023-03-17T08:36:19.022Z,1004.67
2023-03-17T08:37:19.032Z,1004.59
2023-03-17T08:38:19.608Z,1004.60
2023-03-17T08:39:18.983Z,1004.58
2023-03-17T08:40:19.034Z,1004.57
2023-03-17T08:41:18.957Z,1004.61
2023-03-17T08:42:19.369Z,1004.63
2023-03-17T08:43:18.992Z,1004.66
2023-03-17T08:44:18.944Z,1004.59
2023-03-17T08:45:19.709Z,1004.64
2023-03-17T08:46:19.158Z,1004.66
2023-03-17T08:47:18.883Z,1004.65
2023-03-17T08:48:18.876Z,1004.66
2023-03-17T08:49:19.049Z,1004.64
2023-03-17T08:50:18.881Z,1004.61
2023-03-17T08:51:21.487Z,1004.69
2023-03-17T08:52:20.379Z,1004.71
2023-03-17T08:53:18.836Z,1004.65
2023-03-17T08:54:18.981Z,1004.60
2023-03-17T08:55:18.819Z,1004.60
2023-03-17T08:56:18.841Z,1004.52
2023-03-17T08:57:20.868Z,1004.50
2023-03-17T08:58:18.775Z,1004.49
2023-03-17T08:59:18.752Z,1004.50
2023-03-17T09:00:18.749Z,1004.48
2023-03-17T09:01:18.770Z,1004.46
2023-03-17T09:02:18.779Z,1004.53
2023-03-17T09:03:18.745Z,1004.43
2023-03-17T09:04:18.702Z,1004.43
2023-03-17T09:05:20.151Z,1004.42
2023-03-17T09:06:18.670Z,1004.41
2023-03-17T09:07:18.683Z,1004.44
2023-03-17T09:08:18.712Z,1004.53
2023-03-17T09:09:18.804Z,1004.45
2023-03-17T09:10:18.630Z,1004.42
2023-03-17T09:11:18.733Z,1004.39
2023-03-17T09:12:18.734Z,1004.49
2023-03-17T09:13:18.594Z,1004.38
2023-03-17T09:14:19.378Z,1004.46
2023-03-17T09:15:18.574Z,1004.41
2023-03-17T09:16:18.637Z,1004.49
2023-03-17T09:17:18.726Z,1004.40
2023-03-17T09:18:21.373Z,1004.40
2023-03-17T09:19:18.573Z,1004.41
2023-03-17T09:20:18.542Z,1004.41
2023-03-17T09:21:18.502Z,1004.45
2023-03-17T09:22:18.495Z,1004.48
2023-03-17T09:23:19.935Z,1004.45
2023-03-17T09:24:18.493Z,1004.43
2023-03-17T09:25:18.444Z,1004.49
2023-03-17T09:26:18.447Z,1004.48
2023-03-17T09:27:18.436Z,1004.45
2023-03-17T09:28:22.676Z,1004.56
2023-03-17T09:29:18.446Z,1004.51
2023-03-17T09:30:18.395Z,1004.48
2023-03-17T09:31:18.474Z,1004.47
2023-03-17T09:32:18.375Z,1004.50
2023-03-17T09:33:19.461Z,1004.50
2023-03-17T09:34:18.348Z,1004.44
2023-03-17T09:35:18.369Z,1004.47
2023-03-17T09:36:18.336Z,1004.42
2023-03-17T09:37:18.715Z,1004.49
2023-03-17T09:38:18.310Z,1004.42
2023-03-17T09:39:18.328Z,1004.39
2023-03-17T09:40:18.330Z,1004.40
2023-03-17T09:41:18.270Z,1004.37
2023-03-17T09:42:18.727Z,1004.38
2023-03-17T09:43:18.717Z,1004.39
2023-03-17T09:44:18.281Z,1004.41
2023-03-17T09:45:18.222Z,1004.35
2023-03-17T09:46:18.453Z,1004.34
2023-03-17T09:47:18.295Z,1004.37
2023-03-17T09:48:18.422Z,1004.34
2023-03-17T09:49:18.208Z,1004.37
2023-03-17T09:50:18.170Z,1004.31
2023-03-17T09:51:18.160Z,1004.30
2023-03-17T09:52:18.150Z,1004.30
2023-03-17T09:53:18.201Z,1004.29
2023-03-17T09:54:18.133Z,1004.34
2023-03-17T09:55:18.116Z,1004.38
2023-03-17T09:56:18.108Z,1004.39
2023-03-17T09:57:18.228Z,1004.41
2023-03-17T09:58:18.121Z,1004.38
2023-03-17T09:59:18.134Z,1004.45
2023-03-17T10:00:18.090Z,1004.44
2023-03-17T10:01:18.086Z,1004.45
2023-03-17T10:02:18.073Z,1004.45
2023-03-17T10:03:18.029Z,1004.40
2023-03-17T10:04:18.942Z,1004.44
2023-03-17T10:05:18.112Z,1004.38
2023-03-17T10:06:18.944Z,1004.35
2023-03-17T10:07:17.988Z,1004.41
2023-03-17T10:08:30.017Z,1004.39
2023-03-17T10:09:18.989Z,1004.31
2023-03-17T10:10:18.904Z,1004.33
2023-03-17T10:11:17.940Z,1004.34
2023-03-17T10:12:17.950Z,1004.38
2023-03-17T10:13:17.949Z,1004.34
2023-03-17T10:14:21.838Z,1004.35
2023-03-17T10:15:18.902Z,1004.30
2023-03-17T10:16:17.965Z,1004.30
2023-03-17T10:17:17.868Z,1004.33
2023-03-17T10:18:17.884Z,1004.32
2023-03-17T10:19:17.837Z,1004.35
2023-03-17T10:20:17.841Z,1004.36
2023-03-17T10:21:17.821Z,1004.33
2023-03-17T10:22:17.833Z,1004.37
2023-03-17T10:23:17.853Z,1004.43
2023-03-17T10:24:17.817Z,1004.39
2023-03-17T10:25:17.806Z,1004.46
2023-03-17T10:26:17.792Z,1004.46
2023-03-17T10:27:17.803Z,1004.51
2023-03-17T10:28:17.744Z,1004.52
2023-03-17T10:29:17.746Z,1004.51
2023-03-17T10:30:17.721Z,1004.52
2023-03-17T10:31:17.781Z,1004.52
2023-03-17T10:32:17.708Z,1004.50
2023-03-17T10:33:17.712Z,1004.46
2023-03-17T10:34:17.676Z,1004.44
2023-03-17T10:35:17.673Z,1004.44
2023-03-17T10:36:17.674Z,1004.39
2023-03-17T10:37:17.690Z,1004.40
2023-03-17T10:38:17.640Z,1004.35
2023-03-17T10:39:17.655Z,1004.37
2023-03-17T10:40:19.644Z,1004.35
2023-03-17T10:41:17.614Z,1004.43
2023-03-17T10:42:17.595Z,1004.38
2023-03-17T10:43:17.578Z,1004.42
2023-03-17T10:44:17.570Z,1004.36
2023-03-17T10:45:18.591Z,1004.33
2023-03-17T10:46:17.615Z,1004.24
2023-03-17T10:47:17.539Z,1004.27
2023-03-17T10:48:17.548Z,1004.20
2023-03-17T10:49:17.500Z,1004.27
2023-03-17T10:50:17.570Z,1004.24
2023-03-17T10:51:17.492Z,1004.27
2023-03-17T10:52:17.512Z,1004.18
2023-03-17T10:53:17.460Z,1004.24
2023-03-17T10:54:17.479Z,1004.13
2023-03-17T10:55:17.447Z,1004.15
2023-03-17T10:56:17.458Z,1004.13
2023-03-17T10:57:17.457Z,1004.14
2023-03-17T10:58:17.417Z,1004.14
2023-03-17T10:59:17.449Z,1004.15
2023-03-17T11:00:17.400Z,1004.13
2023-03-17T11:01:17.470Z,1004.17
2023-03-17T11:02:17.366Z,1004.20
2023-03-17T11:03:17.345Z,1004.19
2023-03-17T11:04:17.541Z,1004.18
2023-03-17T11:05:17.324Z,1004.14
2023-03-17T11:06:17.330Z,1004.18
2023-03-17T11:07:17.353Z,1004.09
2023-03-17T11:08:17.299Z,1004.09
2023-03-17T11:09:17.301Z,1004.08
2023-03-17T11:10:17.539Z,1004.12
2023-03-17T11:11:17.290Z,1004.02
2023-03-17T11:12:17.272Z,1003.99
2023-03-17T11:13:17.250Z,1004.00
2023-03-17T11:14:17.249Z,1003.99
2023-03-17T11:15:17.285Z,1003.98
2023-03-17T11:16:17.232Z,1004.00
2023-03-17T11:17:18.170Z,1003.95
2023-03-17T11:18:17.186Z,1004.02
2023-03-17T11:19:17.181Z,1003.92
2023-03-17T11:20:17.236Z,1003.94
2023-03-17T11:21:18.231Z,1003.90
2023-03-17T11:22:17.153Z,1004.00
2023-03-17T11:23:17.184Z,1003.90
2023-03-17T11:24:17.283Z,1003.92
2023-03-17T11:25:18.553Z,1003.95
2023-03-17T11:26:17.935Z,1003.93
2023-03-17T11:27:17.192Z,1003.92
2023-03-17T11:28:17.091Z,1003.94
2023-03-17T11:29:17.935Z,1003.92
2023-03-17T11:30:17.082Z,1003.92
2023-03-17T11:31:18.530Z,1003.97
2023-03-17T11:32:17.039Z,1003.94
2023-03-17T11:33:17.085Z,1003.93
2023-03-17T11:34:17.087Z,1003.94
2023-03-17T11:35:17.020Z,1003.96
2023-03-17T11:36:17.029Z,1003.87
2023-03-17T11:37:16.980Z,1003.94
2023-03-17T11:38:17.227Z,1003.89
2023-03-17T11:39:16.961Z,1003.86
2023-03-17T11:40:17.278Z,1003.81
2023-03-17T11:41:16.970Z,1003.87
2023-03-17T11:42:17.258Z,1003.78
2023-03-17T11:43:16.904Z,1003.69
2023-03-17T11:44:17.046Z,1003.68
2023-03-17T11:45:16.900Z,1003.74
2023-03-17T11:46:16.957Z,1003.66
2023-03-17T11:47:17.061Z,1003.62
2023-03-17T11:48:16.863Z,1003.65
2023-03-17T11:49:16.847Z,1003.61
2023-03-17T11:50:16.830Z,1003.60
2023-03-17T11:51:16.960Z,1003.67
2023-03-17T11:52:16.834Z,1003.61
2023-03-17T11:53:16.822Z,1003.59
2023-03-17T11:54:18.246Z,1003.62
2023-03-17T11:55:16.942Z,1003.64
2023-03-17T11:56:16.946Z,1003.63
2023-03-17T11:57:18.313Z,1003.66
2023-03-17T11:58:16.762Z,1003.64
2023-03-17T11:59:16.722Z,1003.57
2023-03-17T12:00:16.825Z,1003.60
2023-03-17T12:01:16.730Z,1003.57
2023-03-17T12:02:16.694Z,1003.55
2023-03-17T12:03:16.812Z,1003.58
2023-03-17T12:04:16.713Z,1003.59
2023-03-17T12:05:16.740Z,1003.57